sensor_id;sensor_type;location;lat;lon;timestamp;P1;P2;P0
49686;PMS5003;36064;38.180;-122.272;2023-09-19T00:00:00;1.4;1.4;
49686;PMS5003;36064;38.180;-122.272;2023-09-19T00:05:00;2.2;1.6;
49686;PMS5003;36064;38.180;-122.272;2023-09-19T00:10:00;1.8;1.2;
49686;PMS5003;36064;38.180;-122.272;2023-09-19T00:15:00;2.6;2.6;
49686;PMS5003;36064;38.180;-122.272;2023-09-19T00:20:00;3.2;3.2;
49686;PMS5003;36064;38.180;-122.272;2023-09-19T00:25:00;2.2;2.2;
49686;PMS5003;36064;38.180;-122.272;2023-09-19T00:30:00;2.0;2.0;
49686;PMS5003;36064;38.180;-122.272;2023-09-19T00:35:01;4.2;3.0;
49686;PMS5003;36064;38.180;-122.272;2023-09-19T00:40:00;6.6;4.8;
49686;PMS5003;36064;38.180;-122.272;2023-09-19T00:45:00;6.0;4.8;
49686;PMS5003;36064;38.180;-122.272;2023-09-19T00:50:02;2.8;2.8;
49686;PMS5003;36064;38.180;-122.272;2023-09-19T00:55:00;2.8;2.8;
49686;PMS5003;36064;38.180;-122.272;2023-09-19T01:00:00;3.4;3.4;
49686;PMS5003;36064;38.180;-122.272;2023-09-19T01:05:00;2.4;2.0;
49686;PMS5003;36064;38.180;-122.272;2023-09-19T01:10:00;2.4;3.4;
49686;PMS5003;36064;38.180;-122.272;2023-09-19T01:15:03;5.0;4.6;
49686;PMS5003;36064;38.180;-122.272;2023-09-19T01:20:07;4.2;4.2;
49686;PMS5003;36064;38.180;-122.272;2023-09-19T01:25:06;4.0;3.8;
49686;PMS5003;36064;38.180;-122.272;2023-09-19T01:30:06;4.2;3.8;
49686;PMS5003;36064;38.180;-122.272;2023-09-19T01:35:00;7.2;5.2;
49686;PMS5003;36064;38.180;-122.272;2023-09-19T01:40:01;7.0;4.6;
49686;PMS5003;36064;38.180;-122.272;2023-09-19T01:45:03;6.4;6.0;
49686;PMS5003;36064;38.180;-122.272;2023-09-19T01:50:02;7.2;6.4;
49686;PMS5003;36064;38.180;-122.272;2023-09-19T01:55:01;6.2;5.8;
49686;PMS5003;36064;38.180;-122.272;2023-09-19T02:00:03;7.0;6.2;
49686;PMS5003;36064;38.180;-122.272;2023-09-19T02:05:00;8.6;6.6;
49686;PMS5003;36064;38.180;-122.272;2023-09-19T02:10:00;7.2;6.2;
49686;PMS5003;36064;38.180;-122.272;2023-09-19T02:15:00;8.0;5.6;
49686;PMS5003;36064;38.180;-122.272;2023-09-19T02:20:01;7.0;7.0;
49686;PMS5003;36064;38.180;-122.272;2023-09-19T02:25:00;8.0;7.6;
49686;PMS5003;36064;38.180;-122.272;2023-09-19T02:30:00;8.6;7.8;
49686;PMS5003;36064;38.180;-122.272;2023-09-19T02:35:01;8.8;7.4;
49686;PMS5003;36064;38.180;-122.272;2023-09-19T02:40:00;7.2;6.6;
49686;PMS5003;36064;38.180;-122.272;2023-09-19T02:45:00;9.8;8.4;
49686;PMS5003;36064;38.180;-122.272;2023-09-19T02:50:00;8.4;7.2;
49686;PMS5003;36064;38.180;-122.272;2023-09-19T02:55:00;10.6;10.0;
49686;PMS5003;36064;38.180;-122.272;2023-09-19T03:00:00;13.4;12.4;
49686;PMS5003;36064;38.180;-122.272;2023-09-19T03:05:01;11.0;8.6;
49686;PMS5003;36064;38.180;-122.272;2023-09-19T03:10:00;9.2;8.4;
49686;PMS5003;36064;38.180;-122.272;2023-09-19T03:15:00;12.2;11.2;
49686;PMS5003;36064;38.180;-122.272;2023-09-19T03:20:01;10.6;9.6;
49686;PMS5003;36064;38.180;-122.272;2023-09-19T03:25:00;10.0;9.4;
49686;PMS5003;36064;38.180;-122.272;2023-09-19T03:30:00;11.0;9.8;
49686;PMS5003;36064;38.180;-122.272;2023-09-19T03:35:01;11.8;10.6;
49686;PMS5003;36064;38.180;-122.272;2023-09-19T03:40:00;12.2;12.0;
49686;PMS5003;36064;38.180;-122.272;2023-09-19T03:45:00;11.8;11.0;
49686;PMS5003;36064;38.180;-122.272;2023-09-19T03:50:01;11.4;10.6;
49686;PMS5003;36064;38.180;-122.272;2023-09-19T03:55:00;9.4;8.8;
49686;PMS5003;36064;38.180;-122.272;2023-09-19T04:00:00;10.2;10.2;
49686;PMS5003;36064;38.180;-122.272;2023-09-19T04:05:00;14.8;13.4;
49686;PMS5003;36064;38.180;-122.272;2023-09-19T04:10:00;12.0;11.4;
49686;PMS5003;36064;38.180;-122.272;2023-09-19T04:15:00;10.2;9.8;
49686;PMS5003;36064;38.180;-122.272;2023-09-19T04:20:00;12.0;11.0;
49686;PMS5003;36064;38.180;-122.272;2023-09-19T04:25:00;15.4;13.8;
49686;PMS5003;36064;38.180;-122.272;2023-09-19T04:30:00;13.0;12.8;
49686;PMS5003;36064;38.180;-122.272;2023-09-19T04:35:00;13.0;11.2;
49686;PMS5003;36064;38.180;-122.272;2023-09-19T04:40:00;12.2;11.4;
49686;PMS5003;36064;38.180;-122.272;2023-09-19T04:45:00;9.6;8.4;
49686;PMS5003;36064;38.180;-122.272;2023-09-19T04:50:01;11.6;11.4;
49686;PMS5003;36064;38.180;-122.272;2023-09-19T04:55:00;11.0;9.4;
49686;PMS5003;36064;38.180;-122.272;2023-09-19T05:00:00;10.2;9.4;
49686;PMS5003;36064;38.180;-122.272;2023-09-19T05:05:01;11.4;10.0;
49686;PMS5003;36064;38.180;-122.272;2023-09-19T05:10:00;11.2;10.4;
49686;PMS5003;36064;38.180;-122.272;2023-09-19T05:15:00;10.8;9.6;
49686;PMS5003;36064;38.180;-122.272;2023-09-19T05:20:01;10.6;9.4;
49686;PMS5003;36064;38.180;-122.272;2023-09-19T05:25:00;13.6;11.8;
49686;PMS5003;36064;38.180;-122.272;2023-09-19T05:30:00;9.6;9.0;
49686;PMS5003;36064;38.180;-122.272;2023-09-19T05:35:00;14.2;11.4;
49686;PMS5003;36064;38.180;-122.272;2023-09-19T05:40:00;9.6;8.8;
49686;PMS5003;36064;38.180;-122.272;2023-09-19T05:45:00;11.8;11.2;
49686;PMS5003;36064;38.180;-122.272;2023-09-19T05:50:00;8.6;10.0;
49686;PMS5003;36064;38.180;-122.272;2023-09-19T05:55:00;14.8;12.6;
49686;PMS5003;36064;38.180;-122.272;2023-09-19T06:00:00;12.8;10.0;
49686;PMS5003;36064;38.180;-122.272;2023-09-19T06:05:00;11.0;10.4;
49686;PMS5003;36064;38.180;-122.272;2023-09-19T06:10:00;13.4;13.4;
49686;PMS5003;36064;38.180;-122.272;2023-09-19T06:15:00;11.0;9.4;
49686;PMS5003;36064;38.180;-122.272;2023-09-19T06:20:01;9.8;8.6;
49686;PMS5003;36064;38.180;-122.272;2023-09-19T06:25:00;13.6;11.8;
49686;PMS5003;36064;38.180;-122.272;2023-09-19T06:30:00;9.6;9.2;
49686;PMS5003;36064;38.180;-122.272;2023-09-19T06:35:00;10.4;9.6;
49686;PMS5003;36064;38.180;-122.272;2023-09-19T06:40:00;13.0;12.6;
49686;PMS5003;36064;38.180;-122.272;2023-09-19T06:45:00;11.8;8.4;
49686;PMS5003;36064;38.180;-122.272;2023-09-19T06:50:00;11.0;10.2;
49686;PMS5003;36064;38.180;-122.272;2023-09-19T06:55:00;16.0;15.0;
49686;PMS5003;36064;38.180;-122.272;2023-09-19T07:00:00;12.0;11.6;
49686;PMS5003;36064;38.180;-122.272;2023-09-19T07:05:00;13.4;11.4;
49686;PMS5003;36064;38.180;-122.272;2023-09-19T07:10:00;13.4;12.0;
49686;PMS5003;36064;38.180;-122.272;2023-09-19T07:15:00;11.6;11.0;
49686;PMS5003;36064;38.180;-122.272;2023-09-19T07:20:00;15.2;14.4;
49686;PMS5003;36064;38.180;-122.272;2023-09-19T07:25:00;14.8;13.0;
49686;PMS5003;36064;38.180;-122.272;2023-09-19T07:30:00;13.8;12.6;
49686;PMS5003;36064;38.180;-122.272;2023-09-19T07:35:00;13.8;13.4;
49686;PMS5003;36064;38.180;-122.272;2023-09-19T07:40:00;12.8;12.4;
49686;PMS5003;36064;38.180;-122.272;2023-09-19T07:45:00;11.4;9.8;
49686;PMS5003;36064;38.180;-122.272;2023-09-19T07:50:00;10.6;10.0;
49686;PMS5003;36064;38.180;-122.272;2023-09-19T07:55:00;13.8;12.0;
49686;PMS5003;36064;38.180;-122.272;2023-09-19T08:00:00;14.4;10.8;
49686;PMS5003;36064;38.180;-122.272;2023-09-19T08:05:01;10.8;12.0;
49686;PMS5003;36064;38.180;-122.272;2023-09-19T08:10:00;14.2;12.2;
49686;PMS5003;36064;38.180;-122.272;2023-09-19T08:15:00;14.4;13.2;
49686;PMS5003;36064;38.180;-122.272;2023-09-19T08:20:00;12.0;10.6;
49686;PMS5003;36064;38.180;-122.272;2023-09-19T08:25:01;16.6;14.0;
49686;PMS5003;36064;38.180;-122.272;2023-09-19T08:30:00;17.2;13.8;
49686;PMS5003;36064;38.180;-122.272;2023-09-19T08:35:00;15.4;15.0;
49686;PMS5003;36064;38.180;-122.272;2023-09-19T08:40:00;15.6;14.4;
49686;PMS5003;36064;38.180;-122.272;2023-09-19T08:45:00;11.4;11.0;
49686;PMS5003;36064;38.180;-122.272;2023-09-19T08:50:01;12.6;12.0;
49686;PMS5003;36064;38.180;-122.272;2023-09-19T08:55:01;12.8;11.8;
49686;PMS5003;36064;38.180;-122.272;2023-09-19T09:00:00;13.2;12.2;
49686;PMS5003;36064;38.180;-122.272;2023-09-19T09:05:02;18.4;18.0;
49686;PMS5003;36064;38.180;-122.272;2023-09-19T09:10:00;16.0;14.8;
49686;PMS5003;36064;38.180;-122.272;2023-09-19T09:15:00;12.8;11.8;
49686;PMS5003;36064;38.180;-122.272;2023-09-19T09:20:00;11.6;11.6;
49686;PMS5003;36064;38.180;-122.272;2023-09-19T09:25:02;15.8;14.2;
49686;PMS5003;36064;38.180;-122.272;2023-09-19T09:30:00;14.2;12.0;
49686;PMS5003;36064;38.180;-122.272;2023-09-19T09:35:01;16.2;15.8;
49686;PMS5003;36064;38.180;-122.272;2023-09-19T09:40:01;15.2;13.4;
49686;PMS5003;36064;38.180;-122.272;2023-09-19T09:50:00;16.6;15.8;
49686;PMS5003;36064;38.180;-122.272;2023-09-19T09:55:01;17.0;16.0;
49686;PMS5003;36064;38.180;-122.272;2023-09-19T10:00:01;17.0;15.2;
49686;PMS5003;36064;38.180;-122.272;2023-09-19T10:05:03;15.6;15.0;
49686;PMS5003;36064;38.180;-122.272;2023-09-19T10:10:01;15.6;14.8;
49686;PMS5003;36064;38.180;-122.272;2023-09-19T10:15:00;13.6;12.6;
49686;PMS5003;36064;38.180;-122.272;2023-09-19T10:20:00;13.6;12.6;
49686;PMS5003;36064;38.180;-122.272;2023-09-19T10:25:00;11.4;10.8;
49686;PMS5003;36064;38.180;-122.272;2023-09-19T10:30:00;11.2;10.8;
49686;PMS5003;36064;38.180;-122.272;2023-09-19T10:35:01;14.2;12.6;
49686;PMS5003;36064;38.180;-122.272;2023-09-19T10:40:00;17.8;16.6;
49686;PMS5003;36064;38.180;-122.272;2023-09-19T10:45:00;17.8;16.8;
49686;PMS5003;36064;38.180;-122.272;2023-09-19T10:50:00;14.6;13.6;
49686;PMS5003;36064;38.180;-122.272;2023-09-19T10:55:00;11.4;13.6;
49686;PMS5003;36064;38.180;-122.272;2023-09-19T11:00:00;15.8;14.4;
49686;PMS5003;36064;38.180;-122.272;2023-09-19T11:10:00;12.8;12.0;
49686;PMS5003;36064;38.180;-122.272;2023-09-19T11:15:00;14.8;13.6;
49686;PMS5003;36064;38.180;-122.272;2023-09-19T11:35:06;14.0;14.0;
49686;PMS5003;36064;38.180;-122.272;2023-09-19T11:40:08;13.4;12.2;
49686;PMS5003;36064;38.180;-122.272;2023-09-19T11:45:00;13.0;12.6;
49686;PMS5003;36064;38.180;-122.272;2023-09-19T11:50:01;12.2;11.8;
49686;PMS5003;36064;38.180;-122.272;2023-09-19T11:55:00;11.8;12.0;
49686;PMS5003;36064;38.180;-122.272;2023-09-19T12:00:00;15.2;13.4;
49686;PMS5003;36064;38.180;-122.272;2023-09-19T12:05:00;16.0;14.4;
49686;PMS5003;36064;38.180;-122.272;2023-09-19T12:10:03;14.0;13.0;
49686;PMS5003;36064;38.180;-122.272;2023-09-19T12:15:00;14.2;12.2;
49686;PMS5003;36064;38.180;-122.272;2023-09-19T12:20:00;18.0;15.4;
49686;PMS5003;36064;38.180;-122.272;2023-09-19T12:25:05;16.6;15.0;
49686;PMS5003;36064;38.180;-122.272;2023-09-19T12:30:00;18.2;17.8;
49686;PMS5003;36064;38.180;-122.272;2023-09-19T12:35:00;16.0;13.0;
49686;PMS5003;36064;38.180;-122.272;2023-09-19T12:40:04;16.4;14.2;
49686;PMS5003;36064;38.180;-122.272;2023-09-19T12:45:00;16.8;13.4;
49686;PMS5003;36064;38.180;-122.272;2023-09-19T12:50:09;18.0;16.8;
49686;PMS5003;36064;38.180;-122.272;2023-09-19T12:55:00;23.6;22.4;
49686;PMS5003;36064;38.180;-122.272;2023-09-19T13:00:00;19.0;17.6;
49686;PMS5003;36064;38.180;-122.272;2023-09-19T13:05:00;18.0;16.4;
49686;PMS5003;36064;38.180;-122.272;2023-09-19T13:10:04;18.4;16.6;
49686;PMS5003;36064;38.180;-122.272;2023-09-19T13:15:08;18.4;17.0;
49686;PMS5003;36064;38.180;-122.272;2023-09-19T13:20:00;16.4;16.2;
49686;PMS5003;36064;38.180;-122.272;2023-09-19T13:25:00;22.56;19.96;
49686;PMS5003;36064;38.180;-122.272;2023-09-19T13:30:00;22.33;21.5;
49686;PMS5003;36064;38.180;-122.272;2023-09-19T13:35:00;22.8;21.6;
49686;PMS5003;36064;38.180;-122.272;2023-09-19T13:40:00;25.6;23.2;
49686;PMS5003;36064;38.180;-122.272;2023-09-19T13:45:00;22.2;20.6;
49686;PMS5003;36064;38.180;-122.272;2023-09-19T13:50:01;17.8;17.0;
49686;PMS5003;36064;38.180;-122.272;2023-09-19T13:55:00;24.0;22.6;
49686;PMS5003;36064;38.180;-122.272;2023-09-19T14:00:00;21.8;19.4;
49686;PMS5003;36064;38.180;-122.272;2023-09-19T14:05:01;22.8;21.8;
49686;PMS5003;36064;38.180;-122.272;2023-09-19T14:10:00;26.0;23.6;
49686;PMS5003;36064;38.180;-122.272;2023-09-19T14:15:00;25.8;22.8;
49686;PMS5003;36064;38.180;-122.272;2023-09-19T14:20:00;27.0;23.2;
49686;PMS5003;36064;38.180;-122.272;2023-09-19T14:25:00;25.0;23.2;
49686;PMS5003;36064;38.180;-122.272;2023-09-19T14:30:00;27.6;24.8;
49686;PMS5003;36064;38.180;-122.272;2023-09-19T14:35:01;26.4;24.4;
49686;PMS5003;36064;38.180;-122.272;2023-09-19T14:40:00;27.2;25.2;
49686;PMS5003;36064;38.180;-122.272;2023-09-19T14:45:00;28.6;25.8;
49686;PMS5003;36064;38.180;-122.272;2023-09-19T14:50:01;30.2;28.0;
49686;PMS5003;36064;38.180;-122.272;2023-09-19T14:55:00;27.6;27.2;
49686;PMS5003;36064;38.180;-122.272;2023-09-19T15:00:01;33.8;30.0;
49686;PMS5003;36064;38.180;-122.272;2023-09-19T15:05:00;36.4;31.6;
49686;PMS5003;36064;38.180;-122.272;2023-09-19T15:10:00;38.6;32.4;
49686;PMS5003;36064;38.180;-122.272;2023-09-19T15:15:00;38.2;33.0;
49686;PMS5003;36064;38.180;-122.272;2023-09-19T15:20:01;36.8;32.6;
49686;PMS5003;36064;38.180;-122.272;2023-09-19T15:25:00;41.2;33.6;
49686;PMS5003;36064;38.180;-122.272;2023-09-19T15:30:00;43.6;34.2;
49686;PMS5003;36064;38.180;-122.272;2023-09-19T15:35:00;41.0;34.6;
49686;PMS5003;36064;38.180;-122.272;2023-09-19T15:40:00;45.4;37.0;
49686;PMS5003;36064;38.180;-122.272;2023-09-19T15:45:00;43.6;36.4;
49686;PMS5003;36064;38.180;-122.272;2023-09-19T15:50:00;43.8;36.0;
49686;PMS5003;36064;38.180;-122.272;2023-09-19T15:55:01;43.2;35.2;
49686;PMS5003;36064;38.180;-122.272;2023-09-19T16:00:00;43.0;34.8;
49686;PMS5003;36064;38.180;-122.272;2023-09-19T16:05:00;47.8;39.6;
49686;PMS5003;36064;38.180;-122.272;2023-09-19T16:10:01;48.2;40.2;
49686;PMS5003;36064;38.180;-122.272;2023-09-19T16:15:00;48.6;39.0;
49686;PMS5003;36064;38.180;-122.272;2023-09-19T16:20:00;48.2;37.6;
49686;PMS5003;36064;38.180;-122.272;2023-09-19T16:25:00;46.2;38.2;
49686;PMS5003;36064;38.180;-122.272;2023-09-19T16:30:00;45.8;38.2;
49686;PMS5003;36064;38.180;-122.272;2023-09-19T16:35:00;47.2;38.6;
49686;PMS5003;36064;38.180;-122.272;2023-09-19T16:40:00;47.4;38.2;
49686;PMS5003;36064;38.180;-122.272;2023-09-19T16:45:00;46.8;36.8;
49686;PMS5003;36064;38.180;-122.272;2023-09-19T16:50:00;46.6;38.0;
49686;PMS5003;36064;38.180;-122.272;2023-09-19T16:55:00;48.0;39.4;
49686;PMS5003;36064;38.180;-122.272;2023-09-19T17:00:00;46.6;39.0;
49686;PMS5003;36064;38.180;-122.272;2023-09-19T17:05:00;46.4;37.0;
49686;PMS5003;36064;38.180;-122.272;2023-09-19T17:10:00;47.0;38.2;
49686;PMS5003;36064;38.180;-122.272;2023-09-19T17:15:00;53.0;42.6;
49686;PMS5003;36064;38.180;-122.272;2023-09-19T17:20:00;53.0;42.2;
49686;PMS5003;36064;38.180;-122.272;2023-09-19T17:25:00;52.2;42.4;
49686;PMS5003;36064;38.180;-122.272;2023-09-19T17:30:00;54.6;44.4;
49686;PMS5003;36064;38.180;-122.272;2023-09-19T17:35:00;51.6;41.6;
49686;PMS5003;36064;38.180;-122.272;2023-09-19T17:40:00;53.2;43.6;
49686;PMS5003;36064;38.180;-122.272;2023-09-19T17:45:00;53.0;43.0;
49686;PMS5003;36064;38.180;-122.272;2023-09-19T17:50:01;51.2;42.4;
49686;PMS5003;36064;38.180;-122.272;2023-09-19T17:55:00;52.2;41.2;
49686;PMS5003;36064;38.180;-122.272;2023-09-19T18:00:00;50.4;39.6;
49686;PMS5003;36064;38.180;-122.272;2023-09-19T18:05:00;44.2;36.8;
49686;PMS5003;36064;38.180;-122.272;2023-09-19T18:10:00;38.2;34.0;
49686;PMS5003;36064;38.180;-122.272;2023-09-19T18:15:00;44.6;37.0;
49686;PMS5003;36064;38.180;-122.272;2023-09-19T18:20:00;46.4;38.2;
49686;PMS5003;36064;38.180;-122.272;2023-09-19T18:25:00;43.4;36.4;
49686;PMS5003;36064;38.180;-122.272;2023-09-19T18:30:00;44.6;36.8;
49686;PMS5003;36064;38.180;-122.272;2023-09-19T18:35:00;45.6;37.4;
49686;PMS5003;36064;38.180;-122.272;2023-09-19T18:40:00;45.6;39.0;
49686;PMS5003;36064;38.180;-122.272;2023-09-19T18:45:00;47.8;39.6;
49686;PMS5003;36064;38.180;-122.272;2023-09-19T18:50:01;44.8;37.6;
49686;PMS5003;36064;38.180;-122.272;2023-09-19T18:55:00;47.4;39.8;
49686;PMS5003;36064;38.180;-122.272;2023-09-19T19:00:00;46.2;37.6;
49686;PMS5003;36064;38.180;-122.272;2023-09-19T19:05:01;50.2;39.6;
49686;PMS5003;36064;38.180;-122.272;2023-09-19T19:10:00;49.8;41.0;
49686;PMS5003;36064;38.180;-122.272;2023-09-19T19:15:00;49.0;40.8;
49686;PMS5003;36064;38.180;-122.272;2023-09-19T19:20:01;54.4;44.4;
49686;PMS5003;36064;38.180;-122.272;2023-09-19T19:25:00;52.8;43.2;
49686;PMS5003;36064;38.180;-122.272;2023-09-19T19:30:00;55.4;44.0;
49686;PMS5003;36064;38.180;-122.272;2023-09-19T19:35:00;56.2;43.6;
49686;PMS5003;36064;38.180;-122.272;2023-09-19T19:40:00;56.0;44.6;
49686;PMS5003;36064;38.180;-122.272;2023-09-19T19:45:00;53.0;43.4;
49686;PMS5003;36064;38.180;-122.272;2023-09-19T19:50:00;53.0;42.6;
49686;PMS5003;36064;38.180;-122.272;2023-09-19T19:55:00;58.0;45.0;
49686;PMS5003;36064;38.180;-122.272;2023-09-19T20:00:00;50.2;41.4;
49686;PMS5003;36064;38.180;-122.272;2023-09-19T20:05:00;52.2;42.2;
49686;PMS5003;36064;38.180;-122.272;2023-09-19T20:10:00;51.2;42.0;
49686;PMS5003;36064;38.180;-122.272;2023-09-19T20:15:00;50.8;40.8;
49686;PMS5003;36064;38.180;-122.272;2023-09-19T20:20:01;51.4;42.6;
49686;PMS5003;36064;38.180;-122.272;2023-09-19T20:25:00;53.2;42.8;
49686;PMS5003;36064;38.180;-122.272;2023-09-19T20:30:00;50.6;41.2;
49686;PMS5003;36064;38.180;-122.272;2023-09-19T20:35:00;50.0;41.0;
49686;PMS5003;36064;38.180;-122.272;2023-09-19T20:40:00;55.4;43.2;
49686;PMS5003;36064;38.180;-122.272;2023-09-19T20:45:00;52.8;43.2;
49686;PMS5003;36064;38.180;-122.272;2023-09-19T20:50:00;55.2;44.6;
49686;PMS5003;36064;38.180;-122.272;2023-09-19T20:55:00;52.6;43.4;
49686;PMS5003;36064;38.180;-122.272;2023-09-19T21:00:00;52.2;43.2;
49686;PMS5003;36064;38.180;-122.272;2023-09-19T21:05:00;52.8;41.6;
49686;PMS5003;36064;38.180;-122.272;2023-09-19T21:10:00;52.8;42.6;
49686;PMS5003;36064;38.180;-122.272;2023-09-19T21:15:00;54.4;42.4;
49686;PMS5003;36064;38.180;-122.272;2023-09-19T21:20:00;50.4;40.6;
49686;PMS5003;36064;38.180;-122.272;2023-09-19T21:25:00;47.4;37.6;
49686;PMS5003;36064;38.180;-122.272;2023-09-19T21:30:00;49.2;39.6;
49686;PMS5003;36064;38.180;-122.272;2023-09-19T21:35:00;42.6;35.6;
49686;PMS5003;36064;38.180;-122.272;2023-09-19T21:40:00;43.4;37.0;
49686;PMS5003;36064;38.180;-122.272;2023-09-19T21:45:00;42.2;35.0;
49686;PMS5003;36064;38.180;-122.272;2023-09-19T21:50:00;39.8;34.0;
49686;PMS5003;36064;38.180;-122.272;2023-09-19T21:55:00;40.8;34.2;
49686;PMS5003;36064;38.180;-122.272;2023-09-19T22:00:00;35.8;31.6;
49686;PMS5003;36064;38.180;-122.272;2023-09-19T22:05:00;43.8;37.8;
49686;PMS5003;36064;38.180;-122.272;2023-09-19T22:10:00;40.4;34.8;
49686;PMS5003;36064;38.180;-122.272;2023-09-19T22:15:00;41.8;34.8;
49686;PMS5003;36064;38.180;-122.272;2023-09-19T22:20:00;44.61;35.61;
49686;PMS5003;36064;38.180;-122.272;2023-09-19T22:25:00;44.99;37.6;
49686;PMS5003;36064;38.180;-122.272;2023-09-19T22:30:00;43.4;36.2;
49686;PMS5003;36064;38.180;-122.272;2023-09-19T22:35:01;51.0;41.6;
49686;PMS5003;36064;38.180;-122.272;2023-09-19T22:40:00;51.4;41.4;
49686;PMS5003;36064;38.180;-122.272;2023-09-19T22:45:00;52.0;43.0;
49686;PMS5003;36064;38.180;-122.272;2023-09-19T22:50:00;52.8;43.2;
49686;PMS5003;36064;38.180;-122.272;2023-09-19T22:55:00;56.8;45.4;
49686;PMS5003;36064;38.180;-122.272;2023-09-19T23:00:00;59.8;46.8;
49686;PMS5003;36064;38.180;-122.272;2023-09-19T23:05:00;62.8;49.2;
49686;PMS5003;36064;38.180;-122.272;2023-09-19T23:10:00;61.0;49.2;
49686;PMS5003;36064;38.180;-122.272;2023-09-19T23:15:00;61.0;49.4;
49686;PMS5003;36064;38.180;-122.272;2023-09-19T23:20:00;60.4;50.0;
49686;PMS5003;36064;38.180;-122.272;2023-09-19T23:25:00;72.0;58.2;
49686;PMS5003;36064;38.180;-122.272;2023-09-19T23:30:00;72.2;60.0;
49686;PMS5003;36064;38.180;-122.272;2023-09-19T23:35:00;91.0;82.8;
49686;PMS5003;36064;38.180;-122.272;2023-09-19T23:40:00;91.4;86.6;
49686;PMS5003;36064;38.180;-122.272;2023-09-19T23:45:00;105.2;93.8;
49686;PMS5003;36064;38.180;-122.272;2023-09-19T23:50:00;106.2;98.0;
49686;PMS5003;36064;38.180;-122.272;2023-09-19T23:55:00;109.2;102.2;
